<?xml version="1.0" encoding="UTF-8" standalone="no" ?>
<gpx xmlns="http://www.topografix.com/GPX/1/1" xmlns:xsi="http://www.w3.org/2001/XMLSchema-instance" xsi:schemaLocation="http://www.topografix.com/GPX/1/1 http://www.topografix.com/GPX/1/1/gpx.xsd" version="1.1" creator="VisuGPX - https://www.visugpx.com">
  <metadata>
    <name>labege-escalquens-chantecaille-bitume</name>
  </metadata>
  <trk>
    <name><![CDATA[Randonnée du 02/12/2021 à 14:16]]></name>
    <trkseg>
      <trkpt lat="43.53175" lon="1.53402">
        <ele>157</ele>
        <time>2021-12-02T14:17:09+01:00</time>
      </trkpt>
      <trkpt lat="43.53171" lon="1.53421">
        <ele>157</ele>
        <time>2021-12-02T14:17:14+01:00</time>
      </trkpt>
      <trkpt lat="43.53004" lon="1.53596">
        <ele>158</ele>
        <time>2021-12-02T14:17:19+01:00</time>
      </trkpt>
      <trkpt lat="43.53027" lon="1.53626">
        <ele>159</ele>
        <time>2021-12-02T14:17:24+01:00</time>
      </trkpt>
      <trkpt lat="43.52972" lon="1.53711">
        <ele>159</ele>
        <time>2021-12-02T14:17:29+01:00</time>
      </trkpt>
      <trkpt lat="43.52885" lon="1.53798">
        <ele>159</ele>
        <time>2021-12-02T14:17:34+01:00</time>
      </trkpt>
      <trkpt lat="43.52952" lon="1.53965">
        <ele>167</ele>
        <time>2021-12-02T14:17:39+01:00</time>
      </trkpt>
      <trkpt lat="43.52954" lon="1.53987">
        <ele>168</ele>
        <time>2021-12-02T14:17:44+01:00</time>
      </trkpt>
      <trkpt lat="43.5291" lon="1.54026">
        <ele>168</ele>
        <time>2021-12-02T14:17:49+01:00</time>
      </trkpt>
      <trkpt lat="43.52913" lon="1.54058">
        <ele>170</ele>
        <time>2021-12-02T14:17:54+01:00</time>
      </trkpt>
      <trkpt lat="43.52878" lon="1.54089">
        <ele>170</ele>
        <time>2021-12-02T14:17:59+01:00</time>
      </trkpt>
      <trkpt lat="43.52866" lon="1.5409">
        <ele>169</ele>
        <time>2021-12-02T14:18:04+01:00</time>
      </trkpt>
      <trkpt lat="43.52839" lon="1.54127">
        <ele>170</ele>
        <time>2021-12-02T14:18:09+01:00</time>
      </trkpt>
      <trkpt lat="43.52843" lon="1.54148">
        <ele>172</ele>
        <time>2021-12-02T14:18:14+01:00</time>
      </trkpt>
      <trkpt lat="43.52825" lon="1.54159">
        <ele>172</ele>
        <time>2021-12-02T14:18:19+01:00</time>
      </trkpt>
      <trkpt lat="43.52765" lon="1.542">
        <ele>173</ele>
        <time>2021-12-02T14:18:24+01:00</time>
      </trkpt>
      <trkpt lat="43.52675" lon="1.54274">
        <ele>172</ele>
        <time>2021-12-02T14:18:29+01:00</time>
      </trkpt>
      <trkpt lat="43.52639" lon="1.54412">
        <ele>183</ele>
        <time>2021-12-02T14:18:34+01:00</time>
      </trkpt>
      <trkpt lat="43.526" lon="1.54461">
        <ele>185</ele>
        <time>2021-12-02T14:18:39+01:00</time>
      </trkpt>
      <trkpt lat="43.52524" lon="1.54447">
        <ele>178</ele>
        <time>2021-12-02T14:18:44+01:00</time>
      </trkpt>
      <trkpt lat="43.52491" lon="1.54443">
        <ele>176</ele>
        <time>2021-12-02T14:18:49+01:00</time>
      </trkpt>
      <trkpt lat="43.52416" lon="1.54651">
        <ele>186</ele>
        <time>2021-12-02T14:18:54+01:00</time>
      </trkpt>
      <trkpt lat="43.52436" lon="1.54673">
        <ele>188</ele>
        <time>2021-12-02T14:18:59+01:00</time>
      </trkpt>
      <trkpt lat="43.52458" lon="1.54661">
        <ele>189</ele>
        <time>2021-12-02T14:19:04+01:00</time>
      </trkpt>
      <trkpt lat="43.52535" lon="1.54687">
        <ele>199</ele>
        <time>2021-12-02T14:19:09+01:00</time>
      </trkpt>
      <trkpt lat="43.52613" lon="1.54618">
        <ele>203</ele>
        <time>2021-12-02T14:19:14+01:00</time>
      </trkpt>
      <trkpt lat="43.52662" lon="1.54568">
        <ele>201</ele>
        <time>2021-12-02T14:19:19+01:00</time>
      </trkpt>
      <trkpt lat="43.52803" lon="1.54725">
        <ele>210</ele>
        <time>2021-12-02T14:19:24+01:00</time>
      </trkpt>
      <trkpt lat="43.52804" lon="1.54754">
        <ele>209</ele>
        <time>2021-12-02T14:19:29+01:00</time>
      </trkpt>
      <trkpt lat="43.52683" lon="1.5498">
        <ele>218</ele>
        <time>2021-12-02T14:19:34+01:00</time>
      </trkpt>
      <trkpt lat="43.52669" lon="1.55001">
        <ele>219</ele>
        <time>2021-12-02T14:19:39+01:00</time>
      </trkpt>
      <trkpt lat="43.52738" lon="1.55069">
        <ele>204</ele>
        <time>2021-12-02T14:19:44+01:00</time>
      </trkpt>
      <trkpt lat="43.52742" lon="1.5509">
        <ele>202</ele>
        <time>2021-12-02T14:19:49+01:00</time>
      </trkpt>
      <trkpt lat="43.5257" lon="1.55611">
        <ele>197</ele>
        <time>2021-12-02T14:19:54+01:00</time>
      </trkpt>
      <trkpt lat="43.52719" lon="1.55883">
        <ele>200</ele>
        <time>2021-12-02T14:19:59+01:00</time>
      </trkpt>
      <trkpt lat="43.52824" lon="1.55959">
        <ele>192</ele>
        <time>2021-12-02T14:20:04+01:00</time>
      </trkpt>
      <trkpt lat="43.52913" lon="1.55725">
        <ele>188</ele>
        <time>2021-12-02T14:20:09+01:00</time>
      </trkpt>
      <trkpt lat="43.52939" lon="1.55489">
        <ele>185</ele>
        <time>2021-12-02T14:20:14+01:00</time>
      </trkpt>
      <trkpt lat="43.53067" lon="1.55218">
        <ele>182</ele>
        <time>2021-12-02T14:20:19+01:00</time>
      </trkpt>
      <trkpt lat="43.53102" lon="1.55209">
        <ele>180</ele>
        <time>2021-12-02T14:20:24+01:00</time>
      </trkpt>
      <trkpt lat="43.53112" lon="1.55182">
        <ele>180</ele>
        <time>2021-12-02T14:20:29+01:00</time>
      </trkpt>
      <trkpt lat="43.53101" lon="1.55139">
        <ele>180</ele>
        <time>2021-12-02T14:20:34+01:00</time>
      </trkpt>
      <trkpt lat="43.53263" lon="1.54798">
        <ele>177</ele>
        <time>2021-12-02T14:20:39+01:00</time>
      </trkpt>
      <trkpt lat="43.5331" lon="1.54695">
        <ele>176</ele>
        <time>2021-12-02T14:20:44+01:00</time>
      </trkpt>
      <trkpt lat="43.52966" lon="1.54476">
        <ele>197</ele>
        <time>2021-12-02T14:20:49+01:00</time>
      </trkpt>
      <trkpt lat="43.52951" lon="1.54423">
        <ele>196</ele>
        <time>2021-12-02T14:20:54+01:00</time>
      </trkpt>
      <trkpt lat="43.52982" lon="1.54365">
        <ele>195</ele>
        <time>2021-12-02T14:20:59+01:00</time>
      </trkpt>
      <trkpt lat="43.53137" lon="1.54121">
        <ele>195</ele>
        <time>2021-12-02T14:21:04+01:00</time>
      </trkpt>
      <trkpt lat="43.53214" lon="1.54181">
        <ele>195</ele>
        <time>2021-12-02T14:21:09+01:00</time>
      </trkpt>
      <trkpt lat="43.5326" lon="1.54098">
        <ele>195</ele>
        <time>2021-12-02T14:21:14+01:00</time>
      </trkpt>
      <trkpt lat="43.53174" lon="1.53891">
        <ele>178</ele>
        <time>2021-12-02T14:21:19+01:00</time>
      </trkpt>
      <trkpt lat="43.53002" lon="1.53585">
        <ele>158</ele>
        <time>2021-12-02T14:21:24+01:00</time>
      </trkpt>
      <trkpt lat="43.53161" lon="1.53413">
        <ele>157</ele>
        <time>2021-12-02T14:21:29+01:00</time>
      </trkpt>
    </trkseg>
  </trk>
</gpx>